Arbutus, Maryland
Current Conditions -  °F | °C
As of 10:54 PM on Friday 24 Oct 2014 (Local Time) from KBWI Reporting Station
Scattered Clouds Scattered Clouds  
Wind Chill: 53°   Ceiling: Unl
Heat Index: 53°   Visibility: 10mi
Dew Point: 36°   Wind: 6mph
Humidity: 52%   Direction: 270°W
Pressure: 29.93"   Gusts: NA
Location:  39.2187°N, 76.722°W
Report Text: KBWI 250254Z 27005KT 10SM SCT250 12/02 A2993 RMK AO2 SLP134 T01170022 51006
Loading
Personal Weather Stations






























Interactive Weather Map
Tropical Storm Tracking
New forecast layout! Learn more

10-Day Weather Forecast

Advertisements
Track Severe Weather on mobile